createdAt,value
2018-09-18T00:00:01.446Z,18.8
2018-09-18T00:05:01.425Z,18.2
2018-09-18T00:15:01.373Z,17.3
2018-09-18T00:20:01.376Z,16.8
2018-09-18T00:25:01.370Z,16.5
2018-09-18T00:30:01.377Z,16.3
2018-09-18T00:35:01.443Z,15.7
2018-09-18T00:40:01.376Z,15.8
2018-09-18T00:45:01.404Z,15.3
2018-09-18T00:50:01.384Z,15.4
2018-09-18T00:55:01.388Z,16.1
2018-09-18T01:01:01.404Z,17.1
2018-09-18T01:06:01.406Z,17.2
2018-09-18T01:11:06.388Z,17.2
2018-09-18T01:16:06.377Z,17.5
2018-09-18T01:21:06.382Z,17.1
2018-09-18T01:26:01.423Z,16.2
2018-09-18T01:31:06.448Z,16.1
2018-09-18T01:36:01.420Z,17.3
2018-09-18T01:41:06.389Z,17.3
2018-09-18T01:47:01.373Z,17.7
2018-09-18T01:52:01.371Z,17.8
2018-09-18T01:57:01.371Z,17.9
2018-09-18T02:02:01.465Z,17.2
2018-09-18T02:07:01.396Z,16.6
2018-09-18T02:12:01.402Z,16.0
2018-09-18T02:17:06.446Z,15.8
2018-09-18T02:22:01.417Z,15.0
2018-09-18T02:27:01.412Z,14.8
2018-09-18T02:43:01.375Z,14.8
2018-09-18T02:48:01.408Z,14.9
2018-09-18T02:53:06.378Z,14.4
2018-09-18T02:58:01.446Z,14.3
2018-09-18T03:03:01.420Z,14.9
2018-09-18T03:08:01.419Z,14.7
2018-09-18T03:13:01.415Z,15.5
2018-09-18T03:18:01.469Z,16.0
2018-09-18T03:23:01.418Z,16.4
2018-09-18T03:33:01.384Z,16.8
2018-09-18T03:38:01.404Z,16.6
2018-09-18T03:43:01.573Z,16.8
2018-09-18T03:53:01.374Z,16.8
2018-09-18T03:58:06.376Z,16.2
2018-09-18T04:03:06.437Z,17.2
2018-09-18T04:08:06.377Z,17.5
2018-09-18T04:18:06.386Z,17.9
2018-09-18T04:23:06.396Z,18.5
2018-09-18T04:28:01.384Z,18.0
2018-09-18T04:33:01.368Z,18.2
2018-09-18T04:38:01.576Z,18.3
2018-09-18T04:43:01.373Z,18.0
2018-09-18T04:48:01.376Z,18.0
2018-09-18T04:53:01.376Z,18.2
2018-09-18T04:58:01.425Z,17.6
2018-09-18T05:03:01.450Z,17.6
2018-09-18T05:08:01.394Z,17.4
2018-09-18T05:13:01.698Z,17.3
2018-09-18T05:18:01.369Z,16.5
2018-09-18T05:28:01.376Z,16.2
2018-09-18T05:33:01.375Z,16.5
2018-09-18T05:38:01.448Z,16.3
2018-09-18T05:43:01.379Z,16.9
2018-09-18T05:48:01.616Z,17.2
2018-09-18T05:53:01.382Z,17.4
2018-09-18T05:58:01.384Z,17.2
2018-09-18T06:04:01.374Z,17.2
2018-09-18T06:09:01.380Z,16.0
2018-09-18T06:14:01.380Z,15.6
2018-09-18T06:19:01.536Z,15.6
2018-09-18T06:24:01.382Z,15.6
2018-09-18T06:29:01.383Z,15.4
2018-09-18T06:34:01.480Z,15.9
2018-09-18T06:39:01.373Z,15.8
2018-09-18T06:44:01.372Z,16.0
2018-09-18T06:49:01.785Z,16.1
2018-09-18T06:54:01.382Z,15.8
2018-09-18T06:59:01.380Z,16.0
2018-09-18T07:04:01.377Z,16.2
2018-09-18T07:14:01.382Z,16.0
2018-09-18T07:19:01.381Z,16.4
2018-09-18T07:24:01.384Z,16.1
2018-09-18T07:29:01.391Z,16.1
2018-09-18T07:34:01.368Z,16.2
2018-09-18T07:39:01.372Z,16.3
2018-09-18T07:49:01.373Z,16.4
2018-09-18T07:54:01.375Z,16.0
2018-09-18T07:59:01.381Z,15.5
2018-09-18T08:04:01.389Z,15.0
2018-09-18T08:09:01.454Z,14.3
2018-09-18T08:14:01.365Z,14.3
2018-09-18T08:19:02.448Z,14.5
2018-09-18T08:24:01.370Z,14.2
2018-09-18T08:29:01.374Z,14.1
2018-09-18T08:34:01.383Z,14.0
2018-09-18T08:39:01.439Z,13.4
2018-09-18T08:44:01.389Z,13.0
2018-09-18T08:49:01.584Z,12.9
2018-09-18T08:54:01.525Z,12.9
2018-09-18T09:04:01.456Z,13.2
2018-09-18T09:09:01.823Z,13.0
2018-09-18T09:14:01.449Z,12.6
2018-09-18T09:19:01.512Z,12.2
2018-09-18T09:24:01.544Z,12.0
2018-09-18T09:29:01.440Z,11.6
2018-09-18T09:34:01.451Z,11.2
2018-09-18T09:39:01.387Z,11.6
2018-09-18T09:44:01.370Z,11.6
2018-09-18T09:54:01.373Z,11.3
2018-09-18T10:09:01.380Z,10.8
2018-09-18T10:14:01.402Z,10.6
2018-09-18T10:19:01.446Z,10.2
2018-09-18T10:24:01.386Z,10.3
2018-09-18T10:29:01.532Z,9.7
2018-09-18T10:34:01.540Z,9.7
2018-09-18T10:39:01.447Z,9.8
2018-09-18T10:44:01.475Z,9.8
2018-09-18T10:49:01.647Z,10.0
2018-09-18T10:54:01.385Z,10.2
2018-09-18T10:59:01.368Z,10.4
2018-09-18T11:04:06.394Z,10.4
2018-09-18T11:09:06.439Z,10.5
2018-09-18T11:14:01.771Z,10.1
2018-09-18T11:19:01.869Z,10.1
2018-09-18T11:24:01.488Z,9.7
2018-09-18T11:29:01.565Z,9.4
2018-09-18T11:34:01.551Z,9.5
2018-09-18T11:39:01.802Z,9.1
2018-09-18T11:44:01.429Z,9.1
2018-09-18T11:49:01.421Z,9.3
2018-09-18T11:54:01.412Z,9.3
2018-09-18T12:04:01.520Z,9.2
2018-09-18T12:09:01.716Z,9.0
2018-09-18T12:14:01.394Z,8.9
2018-09-18T12:20:01.820Z,8.7
2018-09-18T12:25:01.375Z,8.6
2018-09-18T12:30:01.439Z,8.8
2018-09-18T12:35:01.375Z,9.0
2018-09-18T12:40:01.384Z,8.9
2018-09-18T12:45:01.475Z,9.0
2018-09-18T12:50:02.816Z,9.0
2018-09-18T12:55:01.377Z,9.0
2018-09-18T13:00:01.790Z,8.6
2018-09-18T13:05:01.446Z,8.6
2018-09-18T13:10:01.821Z,8.7
2018-09-18T13:15:01.446Z,8.2
2018-09-18T13:30:06.420Z,7.8
2018-09-18T13:35:01.419Z,7.4
2018-09-18T13:40:01.370Z,7.7
2018-09-18T13:45:06.632Z,7.4
2018-09-18T13:50:01.408Z,7.6
2018-09-18T13:55:01.423Z,7.4
2018-09-18T14:00:01.664Z,7.4
2018-09-18T14:05:01.435Z,7.3
2018-09-18T14:10:01.441Z,7.3
2018-09-18T14:15:06.970Z,7.0
2018-09-18T14:25:01.514Z,7.2
2018-09-18T14:30:01.378Z,7.4
2018-09-18T14:35:01.378Z,7.2
2018-09-18T14:40:01.577Z,7.4
